Ana Sayfa
METAR-TAF:

METAR-TAF

Havaalanları :

Atina, Yunanistan

Atina Elefterios Venizelos Uluslararası Havalimanı

Enlem: 37-56N, Boylam: 023-56E, yükseklik: 94 m

Güncel hava durumu gözlemi

Rapor saat 18:50 UTC de 35 dakika önce yapıldı.
Rüzgar kuzeydoğudan 4 kt, batı/kuzeybatı ve doğu/güneydoğu arasında değişken
Sıcaklık 7°C
Nem 33%
Basınç 1016 hPa
Görüş mesafesi 10 km veya daha fazla
2500 ft yükseklikte az bulutlu

METAR: LGAV 181850Z 05004KT 290V120 9999 FEW025 07/M08 Q1016 NOSIG

Saat: 21:25 (19:25 UTC)

Tahmin

Rapor saat 17:00 UTC de 2 saat ve 25 dakika önce yapıldı.
Ayın 18'si saat 18 UTC'den ayın 19'si saat 18 UTC'ye kadar geçerli Tahmin
Rüzgar batı/kuzeybatıdan 10 kt
Görüş mesafesi 10 km veya daha fazla
2500 ft yükseklikte az bulutlu
Dönüşüyor
ayın 19'si saat 10 UTC'den ayın 19'si saat 12 UTC'ye kadar
Rüzgar güney/güneybatıdan 10 kt

TAF: LGAV 181700Z 1818/1918 30010KT 9999 FEW025 BECMG 1910/1912 21010KT

4.000'den fazla havaalanı için hava durumu gözlemleri ve tahminleri (METAR ve TAF raporları).

Kullanılabilir istasyonlar harita üzerinde sarı ve kırmızı noktalarla gösterilir.

İstasyonun adını görmek için fareyi noktanın üzerinde gezdirin.

Sonrasında hava gözlem ve tahminlerini görmek için tıklayın.

Haritayı değiştirmek için: yaklaştırmak için siyah artı işaretli yeşil düğmeye ve uzaklaştırmak için de eksi işaretli düğmeye hızla tıklayın; bitişik haritalar için yeşil okları kullanın.


METAR-TAF: